sensor_id;sensor_type;location;lat;lon;timestamp;pressure;altitude;pressure_sealevel;temperature;humidity
64388;BME280;50709;52.648;4.764;2023-01-15T00:01:35;99646.81;;;15.07;60.07
64388;BME280;50709;52.648;4.764;2023-01-15T00:04:01;99636.53;;;15.25;58.03
64388;BME280;50709;52.648;4.764;2023-01-15T00:06:36;99664.41;;;15.30;59.66
64388;BME280;50709;52.648;4.764;2023-01-15T00:09:03;99638.06;;;14.82;57.52
64388;BME280;50709;52.648;4.764;2023-01-15T00:11:28;99647.88;;;15.51;57.90
64388;BME280;50709;52.648;4.764;2023-01-15T00:13:55;99656.41;;;15.34;54.98
64388;BME280;50709;52.648;4.764;2023-01-15T00:16:23;99651.53;;;15.23;55.41
64388;BME280;50709;52.648;4.764;2023-01-15T00:18:53;99661.94;;;15.26;55.51
64388;BME280;50709;52.648;4.764;2023-01-15T00:21:19;99657.06;;;14.90;56.53
64388;BME280;50709;52.648;4.764;2023-01-15T00:23:46;99669.38;;;14.34;54.18
64388;BME280;50709;52.648;4.764;2023-01-15T00:26:32;99665.56;;;14.44;54.73
64388;BME280;50709;52.648;4.764;2023-01-15T00:29:16;99655.63;;;14.81;57.30
64388;BME280;50709;52.648;4.764;2023-01-15T00:31:50;99653.84;;;14.82;54.65
64388;BME280;50709;52.648;4.764;2023-01-15T00:34:17;99650.91;;;14.91;55.26
64388;BME280;50709;52.648;4.764;2023-01-15T00:36:42;99640.09;;;14.73;58.31
64388;BME280;50709;52.648;4.764;2023-01-15T00:39:08;99633.50;;;14.35;53.95
64388;BME280;50709;52.648;4.764;2023-01-15T00:41:33;99647.63;;;14.57;58.86
64388;BME280;50709;52.648;4.764;2023-01-15T00:43:59;99626.75;;;14.53;57.22
64388;BME280;50709;52.648;4.764;2023-01-15T00:46:44;99636.31;;;14.55;55.77
64388;BME280;50709;52.648;4.764;2023-01-15T00:49:11;99638.72;;;14.61;57.42
64388;BME280;50709;52.648;4.764;2023-01-15T00:51:38;99639.94;;;14.51;59.04
64388;BME280;50709;52.648;4.764;2023-01-15T00:54:04;99634.84;;;14.46;57.27
64388;BME280;50709;52.648;4.764;2023-01-15T00:56:30;99641.72;;;14.77;57.05
64388;BME280;50709;52.648;4.764;2023-01-15T00:58:55;99633.38;;;14.91;57.35
64388;BME280;50709;52.648;4.764;2023-01-15T01:01:21;99637.72;;;14.67;54.22
64388;BME280;50709;52.648;4.764;2023-01-15T01:03:46;99632.34;;;14.15;57.93
64388;BME280;50709;52.648;4.764;2023-01-15T01:06:15;99642.31;;;14.05;56.79
64388;BME280;50709;52.648;4.764;2023-01-15T01:08:42;99644.66;;;13.85;54.03
64388;BME280;50709;52.648;4.764;2023-01-15T01:11:11;99638.81;;;14.58;56.73
64388;BME280;50709;52.648;4.764;2023-01-15T01:13:37;99632.19;;;13.93;57.72
64388;BME280;50709;52.648;4.764;2023-01-15T01:16:04;99633.84;;;14.24;58.33
64388;BME280;50709;52.648;4.764;2023-01-15T01:18:41;99645.63;;;14.39;59.02
64388;BME280;50709;52.648;4.764;2023-01-15T01:21:06;99646.94;;;14.52;58.87
64388;BME280;50709;52.648;4.764;2023-01-15T01:23:32;99647.09;;;14.19;57.94
64388;BME280;50709;52.648;4.764;2023-01-15T01:25:57;99644.25;;;13.99;56.96
64388;BME280;50709;52.648;4.764;2023-01-15T01:28:22;99644.03;;;14.06;57.55
64388;BME280;50709;52.648;4.764;2023-01-15T01:30:48;99657.16;;;14.33;57.46
64388;BME280;50709;52.648;4.764;2023-01-15T01:33:15;99671.75;;;14.15;58.22
64388;BME280;50709;52.648;4.764;2023-01-15T01:35:46;99632.94;;;13.96;54.95
64388;BME280;50709;52.648;4.764;2023-01-15T01:38:12;99661.59;;;13.74;56.48
64388;BME280;50709;52.648;4.764;2023-01-15T01:40:57;99669.66;;;13.68;55.12
64388;BME280;50709;52.648;4.764;2023-01-15T01:43:26;99675.44;;;14.09;58.80
64388;BME280;50709;52.648;4.764;2023-01-15T01:45:53;99678.94;;;13.50;59.49
64388;BME280;50709;52.648;4.764;2023-01-15T01:48:26;99684.91;;;13.85;58.10
64388;BME280;50709;52.648;4.764;2023-01-15T01:50:54;99675.19;;;13.89;58.05
64388;BME280;50709;52.648;4.764;2023-01-15T01:53:24;99674.03;;;13.98;59.71
64388;BME280;50709;52.648;4.764;2023-01-15T01:55:52;99686.31;;;13.67;55.95
64388;BME280;50709;52.648;4.764;2023-01-15T01:58:20;99680.59;;;13.53;58.42
64388;BME280;50709;52.648;4.764;2023-01-15T02:00:49;99679.97;;;13.74;56.33
64388;BME280;50709;52.648;4.764;2023-01-15T02:03:17;99683.03;;;14.19;60.05
64388;BME280;50709;52.648;4.764;2023-01-15T02:05:49;99672.19;;;14.29;58.73
64388;BME280;50709;52.648;4.764;2023-01-15T02:08:21;99684.97;;;13.52;57.36
64388;BME280;50709;52.648;4.764;2023-01-15T02:10:53;99646.81;;;13.42;57.24
64388;BME280;50709;52.648;4.764;2023-01-15T02:13:30;99672.53;;;13.60;57.27
64388;BME280;50709;52.648;4.764;2023-01-15T02:16:22;99664.56;;;13.63;57.57
64388;BME280;50709;52.648;4.764;2023-01-15T02:27:55;99683.19;;;13.84;60.84
64388;BME280;50709;52.648;4.764;2023-01-15T02:30:34;99656.53;;;13.68;58.88
64388;BME280;50709;52.648;4.764;2023-01-15T02:33:29;99639.22;;;13.62;59.00
64388;BME280;50709;52.648;4.764;2023-01-15T02:36:18;99659.28;;;13.93;58.47
64388;BME280;50709;52.648;4.764;2023-01-15T02:38:47;99658.34;;;13.96;58.94
64388;BME280;50709;52.648;4.764;2023-01-15T02:41:17;99658.22;;;13.99;60.53
64388;BME280;50709;52.648;4.764;2023-01-15T02:43:51;99663.16;;;13.19;56.14
64388;BME280;50709;52.648;4.764;2023-01-15T02:46:23;99653.13;;;13.66;59.80
64388;BME280;50709;52.648;4.764;2023-01-15T02:48:53;99643.16;;;13.48;58.77
64388;BME280;50709;52.648;4.764;2023-01-15T02:51:25;99650.84;;;13.84;59.91
64388;BME280;50709;52.648;4.764;2023-01-15T02:53:55;99642.00;;;13.58;59.52
64388;BME280;50709;52.648;4.764;2023-01-15T02:56:25;99634.78;;;13.33;57.83
64388;BME280;50709;52.648;4.764;2023-01-15T02:59:14;99645.13;;;13.69;59.41
64388;BME280;50709;52.648;4.764;2023-01-15T03:02:12;99646.09;;;13.95;59.42
64388;BME280;50709;52.648;4.764;2023-01-15T03:05:02;99642.69;;;13.32;57.01
64388;BME280;50709;52.648;4.764;2023-01-15T03:07:40;99638.63;;;13.83;60.35
64388;BME280;50709;52.648;4.764;2023-01-15T03:10:06;99654.28;;;13.56;59.41
64388;BME280;50709;52.648;4.764;2023-01-15T03:12:47;99631.22;;;13.67;60.18
64388;BME280;50709;52.648;4.764;2023-01-15T03:15:52;99618.25;;;13.31;59.70
64388;BME280;50709;52.648;4.764;2023-01-15T03:22:04;99644.34;;;13.66;60.60
64388;BME280;50709;52.648;4.764;2023-01-15T03:24:43;99641.66;;;13.06;59.48
64388;BME280;50709;52.648;4.764;2023-01-15T03:27:11;99638.94;;;13.10;58.04
64388;BME280;50709;52.648;4.764;2023-01-15T03:29:41;99623.78;;;13.52;61.52
64388;BME280;50709;52.648;4.764;2023-01-15T03:32:08;99644.69;;;13.23;59.99
64388;BME280;50709;52.648;4.764;2023-01-15T03:34:40;99615.16;;;12.85;60.36
64388;BME280;50709;52.648;4.764;2023-01-15T03:37:07;99638.94;;;13.10;60.31
64388;BME280;50709;52.648;4.764;2023-01-15T03:39:33;99633.16;;;12.98;61.08
64388;BME280;50709;52.648;4.764;2023-01-15T03:45:11;99635.84;;;13.57;62.57
64388;BME280;50709;52.648;4.764;2023-01-15T03:48:10;99614.66;;;13.02;58.91
64388;BME280;50709;52.648;4.764;2023-01-15T03:51:04;99602.28;;;12.76;56.08
64388;BME280;50709;52.648;4.764;2023-01-15T03:53:53;99622.97;;;13.18;60.86
64388;BME280;50709;52.648;4.764;2023-01-15T03:56:30;99623.50;;;13.31;60.79
64388;BME280;50709;52.648;4.764;2023-01-15T03:59:13;99610.09;;;12.77;59.01
64388;BME280;50709;52.648;4.764;2023-01-15T04:01:42;99607.53;;;12.76;56.70
64388;BME280;50709;52.648;4.764;2023-01-15T04:04:10;99617.56;;;13.24;62.06
64388;BME280;50709;52.648;4.764;2023-01-15T04:06:39;99615.28;;;12.79;56.61
64388;BME280;50709;52.648;4.764;2023-01-15T04:09:08;99612.53;;;13.17;57.07
64388;BME280;50709;52.648;4.764;2023-01-15T04:11:35;99595.84;;;12.55;56.31
64388;BME280;50709;52.648;4.764;2023-01-15T04:14:01;99599.94;;;12.65;59.52
64388;BME280;50709;52.648;4.764;2023-01-15T04:16:46;99598.84;;;12.74;58.63
64388;BME280;50709;52.648;4.764;2023-01-15T04:19:13;99632.47;;;13.22;61.66
64388;BME280;50709;52.648;4.764;2023-01-15T04:21:38;99617.88;;;12.81;53.87
64388;BME280;50709;52.648;4.764;2023-01-15T04:24:06;99580.47;;;12.75;58.58
64388;BME280;50709;52.648;4.764;2023-01-15T04:26:31;99578.22;;;12.94;60.32
64388;BME280;50709;52.648;4.764;2023-01-15T04:29:17;99614.19;;;12.88;59.12
64388;BME280;50709;52.648;4.764;2023-01-15T04:31:42;99621.63;;;13.03;62.12
64388;BME280;50709;52.648;4.764;2023-01-15T04:34:08;99605.56;;;12.50;59.04
64388;BME280;50709;52.648;4.764;2023-01-15T04:36:33;99619.63;;;12.45;57.62
64388;BME280;50709;52.648;4.764;2023-01-15T04:39:00;99613.03;;;12.65;60.72
64388;BME280;50709;52.648;4.764;2023-01-15T04:41:27;99604.69;;;12.51;62.11
64388;BME280;50709;52.648;4.764;2023-01-15T04:44:11;99605.69;;;12.45;59.31
64388;BME280;50709;52.648;4.764;2023-01-15T04:46:42;99591.56;;;12.18;61.37
64388;BME280;50709;52.648;4.764;2023-01-15T04:49:14;99567.78;;;12.60;62.87
64388;BME280;50709;52.648;4.764;2023-01-15T04:51:40;99596.94;;;12.79;61.03
64388;BME280;50709;52.648;4.764;2023-01-15T04:54:25;99609.84;;;12.54;58.86
64388;BME280;50709;52.648;4.764;2023-01-15T04:56:54;99587.84;;;12.92;61.83
64388;BME280;50709;52.648;4.764;2023-01-15T04:59:24;99597.97;;;12.73;58.86
64388;BME280;50709;52.648;4.764;2023-01-15T05:01:52;99590.06;;;12.75;59.38
64388;BME280;50709;52.648;4.764;2023-01-15T05:04:18;99589.94;;;12.81;61.50
64388;BME280;50709;52.648;4.764;2023-01-15T05:06:45;99584.44;;;12.57;59.65
64388;BME280;50709;52.648;4.764;2023-01-15T05:09:12;99580.78;;;12.63;59.00
64388;BME280;50709;52.648;4.764;2023-01-15T05:11:57;99582.47;;;12.66;60.11
64388;BME280;50709;52.648;4.764;2023-01-15T05:14:23;99578.72;;;12.41;58.98
64388;BME280;50709;52.648;4.764;2023-01-15T05:16:49;99575.84;;;12.18;57.84
64388;BME280;50709;52.648;4.764;2023-01-15T05:19:15;99574.81;;;12.23;60.29
64388;BME280;50709;52.648;4.764;2023-01-15T05:22:03;99575.72;;;12.57;62.44
64388;BME280;50709;52.648;4.764;2023-01-15T05:24:28;99541.53;;;12.28;61.43
64388;BME280;50709;52.648;4.764;2023-01-15T05:26:54;99569.41;;;12.31;57.15
64388;BME280;50709;52.648;4.764;2023-01-15T05:29:20;99580.50;;;12.41;59.79
64388;BME280;50709;52.648;4.764;2023-01-15T05:32:05;99578.06;;;12.33;58.24
64388;BME280;50709;52.648;4.764;2023-01-15T05:34:30;99583.13;;;12.05;56.15
64388;BME280;50709;52.648;4.764;2023-01-15T05:36:59;99561.38;;;12.37;57.44
64388;BME280;50709;52.648;4.764;2023-01-15T05:39:44;99558.97;;;12.62;60.55
64388;BME280;50709;52.648;4.764;2023-01-15T05:42:10;99565.88;;;12.32;55.72
64388;BME280;50709;52.648;4.764;2023-01-15T05:44:35;99544.09;;;11.94;57.97
64388;BME280;50709;52.648;4.764;2023-01-15T05:47:05;99568.13;;;12.11;61.19
64388;BME280;50709;52.648;4.764;2023-01-15T05:49:38;99556.13;;;11.65;54.92
64388;BME280;50709;52.648;4.764;2023-01-15T05:52:06;99550.94;;;12.36;59.27
64388;BME280;50709;52.648;4.764;2023-01-15T05:54:34;99564.63;;;12.80;63.69
64388;BME280;50709;52.648;4.764;2023-01-15T05:57:03;99558.81;;;12.01;57.75
64388;BME280;50709;52.648;4.764;2023-01-15T05:59:30;99571.06;;;11.99;59.92
64388;BME280;50709;52.648;4.764;2023-01-15T06:01:58;99567.19;;;12.14;60.54
64388;BME280;50709;52.648;4.764;2023-01-15T06:04:24;99523.59;;;11.75;58.56
64388;BME280;50709;52.648;4.764;2023-01-15T06:06:51;99561.78;;;12.22;58.07
64388;BME280;50709;52.648;4.764;2023-01-15T06:09:17;99566.78;;;11.95;59.48
64388;BME280;50709;52.648;4.764;2023-01-15T06:11:43;99559.09;;;11.48;55.02
64388;BME280;50709;52.648;4.764;2023-01-15T06:14:29;99564.03;;;12.01;59.59
64388;BME280;50709;52.648;4.764;2023-01-15T06:16:56;99571.19;;;12.64;59.84
64388;BME280;50709;52.648;4.764;2023-01-15T06:19:21;99521.13;;;11.32;54.57
64388;BME280;50709;52.648;4.764;2023-01-15T06:21:48;99580.19;;;12.17;57.17
64388;BME280;50709;52.648;4.764;2023-01-15T06:24:15;99573.34;;;12.48;54.47
64388;BME280;50709;52.648;4.764;2023-01-15T06:26:42;99573.09;;;12.22;60.55
64388;BME280;50709;52.648;4.764;2023-01-15T06:29:07;99569.00;;;12.12;57.18
64388;BME280;50709;52.648;4.764;2023-01-15T06:31:33;99556.19;;;12.36;58.26
64388;BME280;50709;52.648;4.764;2023-01-15T06:34:01;99590.94;;;12.42;57.66
64388;BME280;50709;52.648;4.764;2023-01-15T06:36:27;99536.88;;;11.68;56.65
64388;BME280;50709;52.648;4.764;2023-01-15T06:39:13;99565.34;;;12.19;59.08
64388;BME280;50709;52.648;4.764;2023-01-15T06:41:39;99582.44;;;11.57;58.20
64388;BME280;50709;52.648;4.764;2023-01-15T06:44:23;99581.22;;;12.11;60.05
64388;BME280;50709;52.648;4.764;2023-01-15T06:47:16;99576.91;;;12.45;57.23
64388;BME280;50709;52.648;4.764;2023-01-15T06:49:48;99560.94;;;12.20;57.31
64388;BME280;50709;52.648;4.764;2023-01-15T06:52:14;99564.56;;;12.14;57.02
64388;BME280;50709;52.648;4.764;2023-01-15T06:54:41;99572.34;;;12.17;57.14
64388;BME280;50709;52.648;4.764;2023-01-15T06:57:06;99560.28;;;12.11;58.85
64388;BME280;50709;52.648;4.764;2023-01-15T06:59:32;99559.97;;;11.86;57.77
64388;BME280;50709;52.648;4.764;2023-01-15T07:01:59;99540.63;;;11.93;54.86
64388;BME280;50709;52.648;4.764;2023-01-15T07:04:25;99539.78;;;11.55;55.28
64388;BME280;50709;52.648;4.764;2023-01-15T07:06:52;99529.66;;;12.15;56.40
64388;BME280;50709;52.648;4.764;2023-01-15T07:09:17;99543.22;;;11.57;54.96
64388;BME280;50709;52.648;4.764;2023-01-15T07:11:43;99548.56;;;11.90;60.13
64388;BME280;50709;52.648;4.764;2023-01-15T07:14:23;99520.72;;;11.88;59.76
64388;BME280;50709;52.648;4.764;2023-01-15T07:16:50;99530.78;;;12.05;58.45
64388;BME280;50709;52.648;4.764;2023-01-15T07:19:16;99529.81;;;12.09;58.39
64388;BME280;50709;52.648;4.764;2023-01-15T07:22:03;99524.81;;;12.34;58.65
64388;BME280;50709;52.648;4.764;2023-01-15T07:24:28;99525.09;;;12.23;57.97
64388;BME280;50709;52.648;4.764;2023-01-15T07:26:55;99524.09;;;11.91;57.65
64388;BME280;50709;52.648;4.764;2023-01-15T07:29:21;99507.59;;;12.25;57.38
64388;BME280;50709;52.648;4.764;2023-01-15T07:32:06;99525.78;;;12.30;58.66
64388;BME280;50709;52.648;4.764;2023-01-15T07:34:33;99522.88;;;12.06;57.57
64388;BME280;50709;52.648;4.764;2023-01-15T07:36:58;99516.41;;;12.23;58.14
64388;BME280;50709;52.648;4.764;2023-01-15T07:39:24;99525.13;;;11.86;60.54
64388;BME280;50709;52.648;4.764;2023-01-15T07:41:49;99515.25;;;11.99;58.22
64388;BME280;50709;52.648;4.764;2023-01-15T07:44:33;99507.59;;;11.89;57.33
64388;BME280;50709;52.648;4.764;2023-01-15T07:47:24;99528.28;;;12.35;57.47
64388;BME280;50709;52.648;4.764;2023-01-15T07:50:16;99503.16;;;12.60;60.56
64388;BME280;50709;52.648;4.764;2023-01-15T07:52:44;99525.97;;;12.57;59.78
64388;BME280;50709;52.648;4.764;2023-01-15T07:55:11;99528.22;;;12.03;57.76
64388;BME280;50709;52.648;4.764;2023-01-15T07:57:38;99526.13;;;11.80;59.93
64388;BME280;50709;52.648;4.764;2023-01-15T08:00:12;99528.19;;;12.39;61.10
64388;BME280;50709;52.648;4.764;2023-01-15T08:02:38;99535.78;;;12.14;59.65
64388;BME280;50709;52.648;4.764;2023-01-15T08:05:04;99548.66;;;11.86;60.39
64388;BME280;50709;52.648;4.764;2023-01-15T08:07:36;99543.22;;;11.57;59.43
64388;BME280;50709;52.648;4.764;2023-01-15T08:10:04;99534.16;;;12.10;59.96
64388;BME280;50709;52.648;4.764;2023-01-15T08:12:34;99542.56;;;12.21;56.82
64388;BME280;50709;52.648;4.764;2023-01-15T08:15:19;99536.38;;;11.89;61.31
64388;BME280;50709;52.648;4.764;2023-01-15T08:17:48;99540.19;;;12.14;59.91
64388;BME280;50709;52.648;4.764;2023-01-15T08:20:16;99529.44;;;12.24;61.39
64388;BME280;50709;52.648;4.764;2023-01-15T08:22:43;99514.63;;;12.23;61.07
64388;BME280;50709;52.648;4.764;2023-01-15T08:25:32;99519.94;;;11.84;57.82
64388;BME280;50709;52.648;4.764;2023-01-15T08:28:20;99538.69;;;12.38;59.08
64388;BME280;50709;52.648;4.764;2023-01-15T08:30:48;99547.94;;;12.51;59.63
64388;BME280;50709;52.648;4.764;2023-01-15T08:33:16;99545.22;;;13.49;58.56
64388;BME280;50709;52.648;4.764;2023-01-15T08:35:42;99535.94;;;13.37;55.12
64388;BME280;50709;52.648;4.764;2023-01-15T08:38:08;99529.84;;;13.65;55.02
64388;BME280;50709;52.648;4.764;2023-01-15T08:40:34;99524.63;;;13.63;54.70
64388;BME280;50709;52.648;4.764;2023-01-15T08:43:26;99543.53;;;14.53;56.61
64388;BME280;50709;52.648;4.764;2023-01-15T08:45:56;99516.91;;;14.64;55.60
64388;BME280;50709;52.648;4.764;2023-01-15T08:48:29;99518.31;;;14.98;52.48
64388;BME280;50709;52.648;4.764;2023-01-15T08:50:56;99522.03;;;15.84;52.48
64388;BME280;50709;52.648;4.764;2023-01-15T08:53:41;99521.56;;;16.17;51.05
64388;BME280;50709;52.648;4.764;2023-01-15T08:56:14;99520.44;;;16.43;52.16
64388;BME280;50709;52.648;4.764;2023-01-15T08:58:41;99514.66;;;16.35;51.89
64388;BME280;50709;52.648;4.764;2023-01-15T09:01:11;99500.69;;;17.51;49.76
64388;BME280;50709;52.648;4.764;2023-01-15T09:03:44;99531.25;;;16.58;51.67
64388;BME280;50709;52.648;4.764;2023-01-15T09:06:11;99548.53;;;15.79;52.64
64388;BME280;50709;52.648;4.764;2023-01-15T09:08:59;99531.25;;;17.74;50.00
64388;BME280;50709;52.648;4.764;2023-01-15T09:11:48;99527.00;;;16.95;47.49
64388;BME280;50709;52.648;4.764;2023-01-15T09:14:14;99525.09;;;17.18;49.65
64388;BME280;50709;52.648;4.764;2023-01-15T09:16:41;99491.41;;;17.42;49.40
64388;BME280;50709;52.648;4.764;2023-01-15T09:19:12;99532.66;;;17.81;48.69
64388;BME280;50709;52.648;4.764;2023-01-15T09:21:40;99528.16;;;16.27;49.92
64388;BME280;50709;52.648;4.764;2023-01-15T09:24:27;99519.72;;;17.00;49.23
64388;BME280;50709;52.648;4.764;2023-01-15T09:27:16;99521.59;;;17.92;48.92
64388;BME280;50709;52.648;4.764;2023-01-15T09:29:42;99506.75;;;17.53;46.67
64388;BME280;50709;52.648;4.764;2023-01-15T09:32:09;99504.06;;;17.72;48.16
64388;BME280;50709;52.648;4.764;2023-01-15T09:35:00;99523.72;;;17.47;49.16
64388;BME280;50709;52.648;4.764;2023-01-15T09:37:49;99510.59;;;17.64;48.94
64388;BME280;50709;52.648;4.764;2023-01-15T09:40:33;99517.09;;;17.19;48.15
64388;BME280;50709;52.648;4.764;2023-01-15T09:43:34;99489.47;;;16.90;46.42
64388;BME280;50709;52.648;4.764;2023-01-15T09:46:19;99514.19;;;16.46;46.75
64388;BME280;50709;52.648;4.764;2023-01-15T09:49:07;99512.97;;;15.01;50.92
64388;BME280;50709;52.648;4.764;2023-01-15T09:51:50;99502.53;;;13.43;53.08
64388;BME280;50709;52.648;4.764;2023-01-15T09:56:48;99524.59;;;13.36;56.88
64388;BME280;50709;52.648;4.764;2023-01-15T09:59:34;99522.56;;;13.46;55.96
64388;BME280;50709;52.648;4.764;2023-01-15T10:02:18;99540.16;;;13.98;56.31
64388;BME280;50709;52.648;4.764;2023-01-15T10:04:52;99519.25;;;13.39;56.34
64388;BME280;50709;52.648;4.764;2023-01-15T10:10:14;99538.63;;;13.63;57.84
64388;BME280;50709;52.648;4.764;2023-01-15T10:12:43;99556.31;;;12.95;54.59
64388;BME280;50709;52.648;4.764;2023-01-15T10:17:44;99542.75;;;13.12;53.05
64388;BME280;50709;52.648;4.764;2023-01-15T10:20:23;99526.91;;;12.86;51.48
64388;BME280;50709;52.648;4.764;2023-01-15T10:26:12;99550.19;;;13.56;55.22
64388;BME280;50709;52.648;4.764;2023-01-15T10:29:08;99564.63;;;13.41;53.99
64388;BME280;50709;52.648;4.764;2023-01-15T10:34:20;99538.56;;;13.65;54.10
64388;BME280;50709;52.648;4.764;2023-01-15T10:36:59;99544.66;;;13.66;53.44
64388;BME280;50709;52.648;4.764;2023-01-15T10:47:36;99557.88;;;16.31;49.90
64388;BME280;50709;52.648;4.764;2023-01-15T10:50:15;99560.09;;;15.75;52.62
64388;BME280;50709;52.648;4.764;2023-01-15T10:52:48;99558.03;;;16.88;53.14
64388;BME280;50709;52.648;4.764;2023-01-15T11:01:03;99543.06;;;17.09;50.47
64388;BME280;50709;52.648;4.764;2023-01-15T11:03:35;99550.34;;;17.23;51.08
64388;BME280;50709;52.648;4.764;2023-01-15T11:06:02;99542.97;;;17.68;50.12
64388;BME280;50709;52.648;4.764;2023-01-15T11:08:27;99557.47;;;17.40;48.79
64388;BME280;50709;52.648;4.764;2023-01-15T11:10:55;99589.22;;;17.39;49.37
64388;BME280;50709;52.648;4.764;2023-01-15T11:13:24;99567.69;;;17.29;50.85
64388;BME280;50709;52.648;4.764;2023-01-15T11:16:13;99561.84;;;17.22;48.65
64388;BME280;50709;52.648;4.764;2023-01-15T11:19:33;99581.00;;;17.45;49.74
64388;BME280;50709;52.648;4.764;2023-01-15T11:22:28;99551.06;;;17.46;50.45
64388;BME280;50709;52.648;4.764;2023-01-15T11:24:56;99571.31;;;17.45;47.42
64388;BME280;50709;52.648;4.764;2023-01-15T11:27:32;99577.34;;;17.66;50.01
64388;BME280;50709;52.648;4.764;2023-01-15T11:30:01;99569.66;;;17.62;48.77
64388;BME280;50709;52.648;4.764;2023-01-15T11:32:37;99572.75;;;16.53;47.26
64388;BME280;50709;52.648;4.764;2023-01-15T11:35:17;99579.88;;;16.51;51.29
64388;BME280;50709;52.648;4.764;2023-01-15T11:37:43;99578.16;;;16.91;50.93
64388;BME280;50709;52.648;4.764;2023-01-15T11:40:21;99563.66;;;17.20;52.23
64388;BME280;50709;52.648;4.764;2023-01-15T11:42:50;99592.53;;;16.63;51.22
64388;BME280;50709;52.648;4.764;2023-01-15T11:45:48;99585.53;;;16.62;52.35
64388;BME280;50709;52.648;4.764;2023-01-15T11:48:44;99567.44;;;16.95;53.08
64388;BME280;50709;52.648;4.764;2023-01-15T11:51:30;99586.63;;;16.36;49.76
64388;BME280;50709;52.648;4.764;2023-01-15T11:54:04;99587.03;;;16.88;51.63
64388;BME280;50709;52.648;4.764;2023-01-15T11:56:33;99569.00;;;17.00;51.21
64388;BME280;50709;52.648;4.764;2023-01-15T11:59:09;99585.38;;;16.86;49.98
64388;BME280;50709;52.648;4.764;2023-01-15T12:01:37;99578.84;;;16.12;51.07
64388;BME280;50709;52.648;4.764;2023-01-15T12:04:28;99574.56;;;16.09;50.68
64388;BME280;50709;52.648;4.764;2023-01-15T12:06:55;99569.22;;;16.33;52.10
64388;BME280;50709;52.648;4.764;2023-01-15T12:09:31;99565.16;;;16.45;51.68
64388;BME280;50709;52.648;4.764;2023-01-15T12:20:32;99562.44;;;16.48;52.30
64388;BME280;50709;52.648;4.764;2023-01-15T12:26:29;99573.25;;;15.29;55.35
64388;BME280;50709;52.648;4.764;2023-01-15T12:32:07;99506.78;;;15.92;51.92
64388;BME280;50709;52.648;4.764;2023-01-15T12:40:21;99583.28;;;16.11;51.60
64388;BME280;50709;52.648;4.764;2023-01-15T12:43:25;99598.47;;;16.68;52.21
64388;BME280;50709;52.648;4.764;2023-01-15T12:46:14;99590.78;;;15.98;50.88
64388;BME280;50709;52.648;4.764;2023-01-15T12:49:14;99621.03;;;16.53;54.19
64388;BME280;50709;52.648;4.764;2023-01-15T12:51:57;99596.19;;;16.38;53.82
64388;BME280;50709;52.648;4.764;2023-01-15T12:54:33;99625.47;;;16.73;54.02
64388;BME280;50709;52.648;4.764;2023-01-15T12:57:12;99600.31;;;16.66;53.92
64388;BME280;50709;52.648;4.764;2023-01-15T13:00:00;99596.41;;;16.54;55.27
64388;BME280;50709;52.648;4.764;2023-01-15T13:05:18;99613.75;;;16.17;53.65
64388;BME280;50709;52.648;4.764;2023-01-15T13:07:53;99620.50;;;15.78;53.52
64388;BME280;50709;52.648;4.764;2023-01-15T13:10:25;99618.59;;;16.28;55.33
64388;BME280;50709;52.648;4.764;2023-01-15T13:13:20;99609.09;;;16.02;52.22
64388;BME280;50709;52.648;4.764;2023-01-15T13:21:36;99629.06;;;16.07;55.70
64388;BME280;50709;52.648;4.764;2023-01-15T13:31:10;99636.16;;;16.27;56.48
64388;BME280;50709;52.648;4.764;2023-01-15T13:33:28;99628.94;;;16.10;56.55
64388;BME280;50709;52.648;4.764;2023-01-15T13:36:17;99632.06;;;15.52;56.38
64388;BME280;50709;52.648;4.764;2023-01-15T13:38:46;99612.63;;;16.01;55.83
64388;BME280;50709;52.648;4.764;2023-01-15T13:41:25;99638.16;;;16.22;55.45
64388;BME280;50709;52.648;4.764;2023-01-15T13:44:21;99615.75;;;15.88;55.96
64388;BME280;50709;52.648;4.764;2023-01-15T13:47:04;99633.22;;;15.91;53.23
64388;BME280;50709;52.648;4.764;2023-01-15T13:49:58;99651.41;;;16.19;55.66
64388;BME280;50709;52.648;4.764;2023-01-15T13:53:13;99632.53;;;16.30;56.90
64388;BME280;50709;52.648;4.764;2023-01-15T13:56:07;99657.66;;;16.39;55.73
64388;BME280;50709;52.648;4.764;2023-01-15T14:06:19;99668.06;;;15.50;55.54
64388;BME280;50709;52.648;4.764;2023-01-15T14:09:04;99631.47;;;15.20;57.43
64388;BME280;50709;52.648;4.764;2023-01-15T14:11:36;99680.59;;;16.14;55.55
64388;BME280;50709;52.648;4.764;2023-01-15T14:28:52;99706.84;;;15.94;56.25
64388;BME280;50709;52.648;4.764;2023-01-15T14:32:09;99680.53;;;15.94;55.95
64388;BME280;50709;52.648;4.764;2023-01-15T14:34:37;99708.59;;;15.70;55.31
64388;BME280;50709;52.648;4.764;2023-01-15T14:37:26;99701.31;;;15.53;55.97
64388;BME280;50709;52.648;4.764;2023-01-15T14:39:55;99707.25;;;15.09;57.11
64388;BME280;50709;52.648;4.764;2023-01-15T14:42:26;99669.28;;;15.41;57.52
64388;BME280;50709;52.648;4.764;2023-01-15T14:47:46;99681.56;;;15.16;56.42
64388;BME280;50709;52.648;4.764;2023-01-15T14:50:31;99716.53;;;15.44;53.70
64388;BME280;50709;52.648;4.764;2023-01-15T14:55:49;99660.72;;;15.11;54.67
64388;BME280;50709;52.648;4.764;2023-01-15T15:01:26;99688.94;;;15.78;54.15
64388;BME280;50709;52.648;4.764;2023-01-15T15:03:57;99731.34;;;15.71;56.75
64388;BME280;50709;52.648;4.764;2023-01-15T15:06:26;99740.66;;;16.05;55.55
64388;BME280;50709;52.648;4.764;2023-01-15T15:08:56;99719.91;;;15.72;56.91
64388;BME280;50709;52.648;4.764;2023-01-15T15:11:32;99737.00;;;16.09;56.26
64388;BME280;50709;52.648;4.764;2023-01-15T15:14:19;99765.44;;;15.50;57.36
64388;BME280;50709;52.648;4.764;2023-01-15T15:16:47;99758.94;;;15.60;55.05
64388;BME280;50709;52.648;4.764;2023-01-15T15:21:45;99749.81;;;14.93;58.24
64388;BME280;50709;52.648;4.764;2023-01-15T15:26:52;99755.97;;;14.67;56.24
64388;BME280;50709;52.648;4.764;2023-01-15T15:29:19;99716.00;;;14.27;56.83
64388;BME280;50709;52.648;4.764;2023-01-15T15:31:51;99759.44;;;14.68;58.31